sensor_id;sensor_type;location;lat;lon;timestamp;P1;durP1;ratioP1;P2;durP2;ratioP2
66429;SDS011;53242;51.694;10.006;2023-06-24T00:00:00;9.93;;;3.85;;
66429;SDS011;53242;51.694;10.006;2023-06-24T00:02:23;8.70;;;3.95;;
66429;SDS011;53242;51.694;10.006;2023-06-24T00:04:46;9.05;;;3.75;;
66429;SDS011;53242;51.694;10.006;2023-06-24T00:07:08;9.98;;;3.67;;
66429;SDS011;53242;51.694;10.006;2023-06-24T00:09:30;10.73;;;3.95;;
66429;SDS011;53242;51.694;10.006;2023-06-24T00:11:53;8.63;;;3.55;;
66429;SDS011;53242;51.694;10.006;2023-06-24T00:14:18;8.63;;;3.88;;
66429;SDS011;53242;51.694;10.006;2023-06-24T00:16:43;11.05;;;3.90;;
66429;SDS011;53242;51.694;10.006;2023-06-24T00:19:05;10.13;;;3.60;;
66429;SDS011;53242;51.694;10.006;2023-06-24T00:21:30;7.80;;;3.72;;
66429;SDS011;53242;51.694;10.006;2023-06-24T00:23:52;9.52;;;3.35;;
66429;SDS011;53242;51.694;10.006;2023-06-24T00:26:14;11.63;;;3.63;;
66429;SDS011;53242;51.694;10.006;2023-06-24T00:28:38;12.70;;;4.40;;
66429;SDS011;53242;51.694;10.006;2023-06-24T00:31:00;9.82;;;4.00;;
66429;SDS011;53242;51.694;10.006;2023-06-24T00:33:24;8.80;;;3.30;;
66429;SDS011;53242;51.694;10.006;2023-06-24T00:35:47;10.55;;;4.45;;
66429;SDS011;53242;51.694;10.006;2023-06-24T00:38:11;8.52;;;3.72;;
66429;SDS011;53242;51.694;10.006;2023-06-24T00:40:33;9.10;;;4.18;;
66429;SDS011;53242;51.694;10.006;2023-06-24T00:42:56;9.35;;;4.35;;
66429;SDS011;53242;51.694;10.006;2023-06-24T00:45:19;9.93;;;3.90;;
66429;SDS011;53242;51.694;10.006;2023-06-24T00:47:42;11.30;;;4.05;;
66429;SDS011;53242;51.694;10.006;2023-06-24T00:50:05;7.65;;;3.67;;
66429;SDS011;53242;51.694;10.006;2023-06-24T00:52:27;9.60;;;4.00;;
66429;SDS011;53242;51.694;10.006;2023-06-24T00:54:50;9.65;;;3.63;;
66429;SDS011;53242;51.694;10.006;2023-06-24T00:57:12;8.85;;;4.20;;
66429;SDS011;53242;51.694;10.006;2023-06-24T00:59:35;9.60;;;3.90;;
66429;SDS011;53242;51.694;10.006;2023-06-24T01:04:30;11.45;;;3.60;;
66429;SDS011;53242;51.694;10.006;2023-06-24T01:06:56;8.23;;;3.50;;
66429;SDS011;53242;51.694;10.006;2023-06-24T01:09:19;10.35;;;3.80;;
66429;SDS011;53242;51.694;10.006;2023-06-24T01:11:42;9.18;;;4.03;;
66429;SDS011;53242;51.694;10.006;2023-06-24T01:14:05;9.23;;;3.70;;
66429;SDS011;53242;51.694;10.006;2023-06-24T01:16:33;9.27;;;3.88;;
66429;SDS011;53242;51.694;10.006;2023-06-24T01:18:59;10.57;;;3.90;;
66429;SDS011;53242;51.694;10.006;2023-06-24T01:21:42;9.20;;;3.63;;
66429;SDS011;53242;51.694;10.006;2023-06-24T01:24:39;8.27;;;3.50;;
66429;SDS011;53242;51.694;10.006;2023-06-24T01:27:13;9.90;;;3.83;;
66429;SDS011;53242;51.694;10.006;2023-06-24T01:32:38;8.75;;;3.80;;
66429;SDS011;53242;51.694;10.006;2023-06-24T01:35:07;9.90;;;3.70;;
66429;SDS011;53242;51.694;10.006;2023-06-24T01:37:35;8.25;;;3.70;;
66429;SDS011;53242;51.694;10.006;2023-06-24T01:40:13;11.45;;;3.75;;
66429;SDS011;53242;51.694;10.006;2023-06-24T01:42:43;9.18;;;3.90;;
66429;SDS011;53242;51.694;10.006;2023-06-24T01:45:09;9.60;;;3.47;;
66429;SDS011;53242;51.694;10.006;2023-06-24T01:47:35;8.60;;;3.80;;
66429;SDS011;53242;51.694;10.006;2023-06-24T01:49:59;8.20;;;3.45;;
66429;SDS011;53242;51.694;10.006;2023-06-24T01:52:24;7.63;;;3.40;;
66429;SDS011;53242;51.694;10.006;2023-06-24T01:54:50;10.30;;;4.53;;
66429;SDS011;53242;51.694;10.006;2023-06-24T01:57:17;10.90;;;3.85;;
66429;SDS011;53242;51.694;10.006;2023-06-24T01:59:42;11.18;;;4.43;;
66429;SDS011;53242;51.694;10.006;2023-06-24T02:02:07;9.93;;;4.07;;
66429;SDS011;53242;51.694;10.006;2023-06-24T02:04:30;10.57;;;3.42;;
66429;SDS011;53242;51.694;10.006;2023-06-24T02:06:53;9.27;;;4.13;;
66429;SDS011;53242;51.694;10.006;2023-06-24T02:09:16;10.13;;;4.18;;
66429;SDS011;53242;51.694;10.006;2023-06-24T02:11:41;10.15;;;3.70;;
66429;SDS011;53242;51.694;10.006;2023-06-24T02:14:04;8.77;;;3.53;;
66429;SDS011;53242;51.694;10.006;2023-06-24T02:16:27;8.15;;;3.70;;
66429;SDS011;53242;51.694;10.006;2023-06-24T02:18:51;9.40;;;3.55;;
66429;SDS011;53242;51.694;10.006;2023-06-24T02:21:16;8.52;;;3.38;;
66429;SDS011;53242;51.694;10.006;2023-06-24T02:23:41;9.75;;;4.05;;
66429;SDS011;53242;51.694;10.006;2023-06-24T02:26:05;8.90;;;3.92;;
66429;SDS011;53242;51.694;10.006;2023-06-24T02:28:28;11.20;;;3.88;;
66429;SDS011;53242;51.694;10.006;2023-06-24T02:30:53;9.45;;;4.43;;
66429;SDS011;53242;51.694;10.006;2023-06-24T02:33:16;8.55;;;3.63;;
66429;SDS011;53242;51.694;10.006;2023-06-24T02:38:03;10.48;;;3.90;;
66429;SDS011;53242;51.694;10.006;2023-06-24T02:40:26;10.88;;;3.70;;
66429;SDS011;53242;51.694;10.006;2023-06-24T02:42:49;10.45;;;4.10;;
66429;SDS011;53242;51.694;10.006;2023-06-24T02:45:12;9.25;;;4.00;;
66429;SDS011;53242;51.694;10.006;2023-06-24T02:47:35;8.85;;;3.75;;
66429;SDS011;53242;51.694;10.006;2023-06-24T02:49:58;8.80;;;3.90;;
66429;SDS011;53242;51.694;10.006;2023-06-24T02:52:21;11.48;;;4.00;;
66429;SDS011;53242;51.694;10.006;2023-06-24T02:54:44;9.40;;;4.13;;
66429;SDS011;53242;51.694;10.006;2023-06-24T02:57:35;9.32;;;4.03;;
66429;SDS011;53242;51.694;10.006;2023-06-24T03:00:16;10.00;;;4.00;;
66429;SDS011;53242;51.694;10.006;2023-06-24T03:02:58;10.77;;;4.40;;
66429;SDS011;53242;51.694;10.006;2023-06-24T03:05:21;10.60;;;4.13;;
66429;SDS011;53242;51.694;10.006;2023-06-24T03:07:49;9.10;;;3.95;;
66429;SDS011;53242;51.694;10.006;2023-06-24T03:10:11;11.52;;;4.15;;
66429;SDS011;53242;51.694;10.006;2023-06-24T03:12:35;10.77;;;4.45;;
66429;SDS011;53242;51.694;10.006;2023-06-24T03:14:57;10.55;;;4.45;;
66429;SDS011;53242;51.694;10.006;2023-06-24T03:17:22;9.30;;;4.20;;
66429;SDS011;53242;51.694;10.006;2023-06-24T03:19:47;9.88;;;4.10;;
66429;SDS011;53242;51.694;10.006;2023-06-24T03:22:09;12.27;;;4.55;;
66429;SDS011;53242;51.694;10.006;2023-06-24T03:24:32;10.32;;;4.70;;
66429;SDS011;53242;51.694;10.006;2023-06-24T03:26:55;10.13;;;5.05;;
66429;SDS011;53242;51.694;10.006;2023-06-24T03:29:25;11.05;;;4.93;;
66429;SDS011;53242;51.694;10.006;2023-06-24T03:31:56;11.30;;;4.88;;
66429;SDS011;53242;51.694;10.006;2023-06-24T03:34:21;11.00;;;4.57;;
66429;SDS011;53242;51.694;10.006;2023-06-24T03:36:43;11.80;;;5.00;;
66429;SDS011;53242;51.694;10.006;2023-06-24T03:39:06;12.88;;;4.90;;
66429;SDS011;53242;51.694;10.006;2023-06-24T03:41:28;10.30;;;4.43;;
66429;SDS011;53242;51.694;10.006;2023-06-24T03:43:51;11.05;;;4.70;;
66429;SDS011;53242;51.694;10.006;2023-06-24T03:46:15;10.85;;;4.47;;
66429;SDS011;53242;51.694;10.006;2023-06-24T03:48:37;13.77;;;5.07;;
66429;SDS011;53242;51.694;10.006;2023-06-24T03:51:00;10.63;;;4.85;;
66429;SDS011;53242;51.694;10.006;2023-06-24T03:53:24;9.68;;;4.32;;
66429;SDS011;53242;51.694;10.006;2023-06-24T03:55:47;12.02;;;4.43;;
66429;SDS011;53242;51.694;10.006;2023-06-24T03:58:11;10.93;;;4.75;;
66429;SDS011;53242;51.694;10.006;2023-06-24T04:00:34;11.50;;;5.10;;
66429;SDS011;53242;51.694;10.006;2023-06-24T04:03:01;10.82;;;4.82;;
66429;SDS011;53242;51.694;10.006;2023-06-24T04:05:23;14.38;;;5.00;;
66429;SDS011;53242;51.694;10.006;2023-06-24T04:07:46;11.27;;;4.78;;
66429;SDS011;53242;51.694;10.006;2023-06-24T04:10:10;11.63;;;4.43;;
66429;SDS011;53242;51.694;10.006;2023-06-24T04:12:32;9.52;;;4.63;;
66429;SDS011;53242;51.694;10.006;2023-06-24T04:14:55;12.55;;;4.78;;
66429;SDS011;53242;51.694;10.006;2023-06-24T04:17:17;11.70;;;4.82;;
66429;SDS011;53242;51.694;10.006;2023-06-24T04:19:40;9.40;;;4.60;;
66429;SDS011;53242;51.694;10.006;2023-06-24T04:22:02;11.02;;;4.72;;
66429;SDS011;53242;51.694;10.006;2023-06-24T04:24:25;11.90;;;4.68;;
66429;SDS011;53242;51.694;10.006;2023-06-24T04:26:47;13.25;;;5.40;;
66429;SDS011;53242;51.694;10.006;2023-06-24T04:29:10;11.52;;;4.60;;
66429;SDS011;53242;51.694;10.006;2023-06-24T04:31:33;11.52;;;5.20;;
66429;SDS011;53242;51.694;10.006;2023-06-24T04:33:56;10.40;;;5.10;;
66429;SDS011;53242;51.694;10.006;2023-06-24T04:36:18;14.27;;;5.55;;
66429;SDS011;53242;51.694;10.006;2023-06-24T04:38:40;12.15;;;4.85;;
66429;SDS011;53242;51.694;10.006;2023-06-24T04:41:03;15.45;;;5.68;;
66429;SDS011;53242;51.694;10.006;2023-06-24T04:43:26;13.38;;;5.80;;
66429;SDS011;53242;51.694;10.006;2023-06-24T04:45:50;12.23;;;5.45;;
66429;SDS011;53242;51.694;10.006;2023-06-24T04:48:12;11.30;;;5.13;;
66429;SDS011;53242;51.694;10.006;2023-06-24T04:50:34;12.18;;;5.32;;
66429;SDS011;53242;51.694;10.006;2023-06-24T04:52:57;12.63;;;5.47;;
66429;SDS011;53242;51.694;10.006;2023-06-24T04:55:21;13.88;;;5.20;;
66429;SDS011;53242;51.694;10.006;2023-06-24T05:00:06;12.73;;;5.77;;
66429;SDS011;53242;51.694;10.006;2023-06-24T05:02:29;9.70;;;4.70;;
66429;SDS011;53242;51.694;10.006;2023-06-24T05:04:52;10.73;;;4.70;;
66429;SDS011;53242;51.694;10.006;2023-06-24T05:07:14;9.88;;;4.75;;
66429;SDS011;53242;51.694;10.006;2023-06-24T05:09:37;10.13;;;4.50;;
66429;SDS011;53242;51.694;10.006;2023-06-24T05:12:00;10.18;;;5.18;;
66429;SDS011;53242;51.694;10.006;2023-06-24T05:14:22;11.15;;;5.00;;
66429;SDS011;53242;51.694;10.006;2023-06-24T05:16:44;11.23;;;4.63;;
66429;SDS011;53242;51.694;10.006;2023-06-24T05:19:07;11.98;;;4.32;;
66429;SDS011;53242;51.694;10.006;2023-06-24T05:21:29;9.80;;;4.68;;
66429;SDS011;53242;51.694;10.006;2023-06-24T05:23:52;12.85;;;5.35;;
66429;SDS011;53242;51.694;10.006;2023-06-24T05:26:14;13.25;;;4.53;;
66429;SDS011;53242;51.694;10.006;2023-06-24T05:28:37;12.77;;;4.63;;
66429;SDS011;53242;51.694;10.006;2023-06-24T05:30:59;8.95;;;4.13;;
66429;SDS011;53242;51.694;10.006;2023-06-24T05:33:22;10.32;;;4.53;;
66429;SDS011;53242;51.694;10.006;2023-06-24T05:35:44;11.82;;;4.75;;
66429;SDS011;53242;51.694;10.006;2023-06-24T05:38:06;11.35;;;4.72;;
66429;SDS011;53242;51.694;10.006;2023-06-24T05:40:29;9.52;;;4.60;;
66429;SDS011;53242;51.694;10.006;2023-06-24T05:42:51;13.93;;;4.82;;
66429;SDS011;53242;51.694;10.006;2023-06-24T05:45:14;9.88;;;4.80;;
66429;SDS011;53242;51.694;10.006;2023-06-24T05:47:37;11.50;;;4.40;;
66429;SDS011;53242;51.694;10.006;2023-06-24T05:49:59;12.20;;;4.78;;
66429;SDS011;53242;51.694;10.006;2023-06-24T05:52:22;10.93;;;4.40;;
66429;SDS011;53242;51.694;10.006;2023-06-24T05:54:44;10.23;;;4.28;;
66429;SDS011;53242;51.694;10.006;2023-06-24T05:57:07;9.77;;;3.95;;
66429;SDS011;53242;51.694;10.006;2023-06-24T05:59:29;11.70;;;4.38;;
66429;SDS011;53242;51.694;10.006;2023-06-24T06:01:51;13.30;;;4.65;;
66429;SDS011;53242;51.694;10.006;2023-06-24T06:04:14;10.43;;;4.10;;
66429;SDS011;53242;51.694;10.006;2023-06-24T06:06:36;8.98;;;3.80;;
66429;SDS011;53242;51.694;10.006;2023-06-24T06:08:59;9.18;;;3.70;;
66429;SDS011;53242;51.694;10.006;2023-06-24T06:11:21;9.25;;;3.75;;
66429;SDS011;53242;51.694;10.006;2023-06-24T06:13:44;9.30;;;4.00;;
66429;SDS011;53242;51.694;10.006;2023-06-24T06:16:06;10.27;;;3.92;;
66429;SDS011;53242;51.694;10.006;2023-06-24T06:18:29;14.20;;;4.80;;
66429;SDS011;53242;51.694;10.006;2023-06-24T06:20:51;8.35;;;3.92;;
66429;SDS011;53242;51.694;10.006;2023-06-24T06:23:14;9.13;;;4.22;;
66429;SDS011;53242;51.694;10.006;2023-06-24T06:25:38;8.02;;;4.00;;
66429;SDS011;53242;51.694;10.006;2023-06-24T06:28:00;10.52;;;4.47;;
66429;SDS011;53242;51.694;10.006;2023-06-24T06:30:23;10.23;;;4.13;;
66429;SDS011;53242;51.694;10.006;2023-06-24T06:32:45;9.23;;;3.63;;
66429;SDS011;53242;51.694;10.006;2023-06-24T06:35:07;8.77;;;3.58;;
66429;SDS011;53242;51.694;10.006;2023-06-24T06:37:30;10.75;;;4.03;;
66429;SDS011;53242;51.694;10.006;2023-06-24T06:39:52;9.55;;;4.00;;
66429;SDS011;53242;51.694;10.006;2023-06-24T06:42:15;10.77;;;4.10;;
66429;SDS011;53242;51.694;10.006;2023-06-24T06:44:38;10.85;;;3.85;;
66429;SDS011;53242;51.694;10.006;2023-06-24T06:47:00;8.63;;;3.92;;
66429;SDS011;53242;51.694;10.006;2023-06-24T06:49:23;8.02;;;4.03;;
66429;SDS011;53242;51.694;10.006;2023-06-24T06:51:45;8.52;;;3.40;;
66429;SDS011;53242;51.694;10.006;2023-06-24T06:54:07;8.88;;;4.28;;
66429;SDS011;53242;51.694;10.006;2023-06-24T06:56:30;8.63;;;3.83;;
66429;SDS011;53242;51.694;10.006;2023-06-24T06:58:52;8.57;;;4.22;;
66429;SDS011;53242;51.694;10.006;2023-06-24T07:01:15;9.93;;;3.80;;
66429;SDS011;53242;51.694;10.006;2023-06-24T07:03:37;8.07;;;3.72;;
66429;SDS011;53242;51.694;10.006;2023-06-24T07:06:00;8.45;;;3.75;;
66429;SDS011;53242;51.694;10.006;2023-06-24T07:08:22;9.43;;;3.85;;
66429;SDS011;53242;51.694;10.006;2023-06-24T07:10:44;7.63;;;3.60;;
66429;SDS011;53242;51.694;10.006;2023-06-24T07:13:07;8.50;;;3.40;;
66429;SDS011;53242;51.694;10.006;2023-06-24T07:15:29;9.38;;;3.92;;
66429;SDS011;53242;51.694;10.006;2023-06-24T07:17:52;9.13;;;3.70;;
66429;SDS011;53242;51.694;10.006;2023-06-24T07:20:15;9.95;;;3.65;;
66429;SDS011;53242;51.694;10.006;2023-06-24T07:22:37;10.73;;;3.50;;
66429;SDS011;53242;51.694;10.006;2023-06-24T07:25:00;7.95;;;3.10;;
66429;SDS011;53242;51.694;10.006;2023-06-24T07:27:22;7.68;;;3.17;;
66429;SDS011;53242;51.694;10.006;2023-06-24T07:29:45;7.45;;;3.38;;
66429;SDS011;53242;51.694;10.006;2023-06-24T07:32:07;10.20;;;3.85;;
66429;SDS011;53242;51.694;10.006;2023-06-24T07:34:30;10.20;;;3.72;;
66429;SDS011;53242;51.694;10.006;2023-06-24T07:36:52;9.23;;;3.40;;
66429;SDS011;53242;51.694;10.006;2023-06-24T07:39:15;7.53;;;3.17;;
66429;SDS011;53242;51.694;10.006;2023-06-24T07:41:37;9.50;;;3.45;;
66429;SDS011;53242;51.694;10.006;2023-06-24T07:44:00;8.35;;;3.15;;
66429;SDS011;53242;51.694;10.006;2023-06-24T07:46:22;6.40;;;3.22;;
66429;SDS011;53242;51.694;10.006;2023-06-24T07:48:44;8.75;;;3.90;;
66429;SDS011;53242;51.694;10.006;2023-06-24T07:51:07;8.77;;;3.58;;
66429;SDS011;53242;51.694;10.006;2023-06-24T07:53:29;8.73;;;3.72;;
66429;SDS011;53242;51.694;10.006;2023-06-24T07:55:52;7.22;;;3.45;;
66429;SDS011;53242;51.694;10.006;2023-06-24T07:58:14;9.13;;;3.50;;
66429;SDS011;53242;51.694;10.006;2023-06-24T08:00:36;8.35;;;3.70;;
66429;SDS011;53242;51.694;10.006;2023-06-24T08:02:59;7.28;;;3.22;;
66429;SDS011;53242;51.694;10.006;2023-06-24T08:05:21;9.32;;;3.72;;
66429;SDS011;53242;51.694;10.006;2023-06-24T08:07:44;8.02;;;3.53;;
66429;SDS011;53242;51.694;10.006;2023-06-24T08:10:06;8.07;;;3.55;;
66429;SDS011;53242;51.694;10.006;2023-06-24T08:12:29;10.80;;;3.78;;
66429;SDS011;53242;51.694;10.006;2023-06-24T08:14:52;9.65;;;3.53;;
66429;SDS011;53242;51.694;10.006;2023-06-24T08:17:14;9.43;;;4.03;;
66429;SDS011;53242;51.694;10.006;2023-06-24T08:19:36;11.32;;;4.28;;
66429;SDS011;53242;51.694;10.006;2023-06-24T08:21:59;8.35;;;3.85;;
66429;SDS011;53242;51.694;10.006;2023-06-24T08:24:21;9.23;;;3.72;;
66429;SDS011;53242;51.694;10.006;2023-06-24T08:26:43;10.52;;;4.30;;
66429;SDS011;53242;51.694;10.006;2023-06-24T08:29:06;10.30;;;4.30;;
66429;SDS011;53242;51.694;10.006;2023-06-24T08:31:29;7.78;;;3.90;;
66429;SDS011;53242;51.694;10.006;2023-06-24T08:33:52;10.00;;;4.30;;
66429;SDS011;53242;51.694;10.006;2023-06-24T08:36:15;8.45;;;3.90;;
66429;SDS011;53242;51.694;10.006;2023-06-24T08:38:38;7.95;;;3.80;;
66429;SDS011;53242;51.694;10.006;2023-06-24T08:41:00;8.18;;;3.72;;
66429;SDS011;53242;51.694;10.006;2023-06-24T08:43:22;10.48;;;4.10;;
66429;SDS011;53242;51.694;10.006;2023-06-24T08:45:45;9.07;;;3.80;;
66429;SDS011;53242;51.694;10.006;2023-06-24T08:48:07;13.27;;;4.80;;
66429;SDS011;53242;51.694;10.006;2023-06-24T08:50:34;9.13;;;3.63;;
66429;SDS011;53242;51.694;10.006;2023-06-24T08:52:58;8.05;;;3.20;;
66429;SDS011;53242;51.694;10.006;2023-06-24T08:55:24;8.02;;;3.50;;
66429;SDS011;53242;51.694;10.006;2023-06-24T08:57:53;8.38;;;3.28;;
66429;SDS011;53242;51.694;10.006;2023-06-24T09:00:15;9.40;;;3.58;;
66429;SDS011;53242;51.694;10.006;2023-06-24T09:02:38;7.88;;;3.63;;
66429;SDS011;53242;51.694;10.006;2023-06-24T09:05:00;8.68;;;3.50;;
66429;SDS011;53242;51.694;10.006;2023-06-24T09:07:25;7.97;;;3.67;;
66429;SDS011;53242;51.694;10.006;2023-06-24T09:09:48;7.53;;;3.55;;
66429;SDS011;53242;51.694;10.006;2023-06-24T09:12:12;6.65;;;3.00;;
66429;SDS011;53242;51.694;10.006;2023-06-24T09:14:35;9.07;;;3.60;;
66429;SDS011;53242;51.694;10.006;2023-06-24T09:16:59;6.90;;;3.08;;
66429;SDS011;53242;51.694;10.006;2023-06-24T09:19:26;6.70;;;3.03;;
66429;SDS011;53242;51.694;10.006;2023-06-24T09:21:52;6.10;;;2.78;;
66429;SDS011;53242;51.694;10.006;2023-06-24T09:24:14;7.20;;;3.00;;
66429;SDS011;53242;51.694;10.006;2023-06-24T09:26:37;8.20;;;3.22;;
66429;SDS011;53242;51.694;10.006;2023-06-24T09:28:59;7.97;;;3.17;;
66429;SDS011;53242;51.694;10.006;2023-06-24T09:31:22;5.85;;;2.97;;
66429;SDS011;53242;51.694;10.006;2023-06-24T09:33:46;6.50;;;2.75;;
66429;SDS011;53242;51.694;10.006;2023-06-24T09:36:12;7.70;;;2.63;;
66429;SDS011;53242;51.694;10.006;2023-06-24T09:38:36;7.20;;;2.80;;
66429;SDS011;53242;51.694;10.006;2023-06-24T09:41:03;7.72;;;3.05;;
66429;SDS011;53242;51.694;10.006;2023-06-24T09:43:27;5.85;;;3.00;;
66429;SDS011;53242;51.694;10.006;2023-06-24T09:45:49;5.85;;;2.80;;
66429;SDS011;53242;51.694;10.006;2023-06-24T09:48:12;6.95;;;2.70;;
66429;SDS011;53242;51.694;10.006;2023-06-24T09:50:34;6.00;;;2.90;;
66429;SDS011;53242;51.694;10.006;2023-06-24T09:52:57;6.20;;;2.83;;
66429;SDS011;53242;51.694;10.006;2023-06-24T09:55:20;6.03;;;2.92;;
66429;SDS011;53242;51.694;10.006;2023-06-24T09:57:44;6.28;;;2.97;;
66429;SDS011;53242;51.694;10.006;2023-06-24T10:00:09;7.97;;;3.20;;
66429;SDS011;53242;51.694;10.006;2023-06-24T10:02:32;8.65;;;3.25;;
66429;SDS011;53242;51.694;10.006;2023-06-24T10:04:55;7.82;;;3.15;;
66429;SDS011;53242;51.694;10.006;2023-06-24T10:07:18;7.50;;;3.08;;
66429;SDS011;53242;51.694;10.006;2023-06-24T10:09:40;6.88;;;3.25;;
66429;SDS011;53242;51.694;10.006;2023-06-24T10:12:03;6.25;;;3.08;;
66429;SDS011;53242;51.694;10.006;2023-06-24T10:14:26;8.38;;;3.72;;
66429;SDS011;53242;51.694;10.006;2023-06-24T10:16:48;6.85;;;3.55;;
66429;SDS011;53242;51.694;10.006;2023-06-24T10:19:13;7.68;;;3.30;;
66429;SDS011;53242;51.694;10.006;2023-06-24T10:21:44;7.25;;;3.13;;
66429;SDS011;53242;51.694;10.006;2023-06-24T10:24:12;6.95;;;3.35;;
66429;SDS011;53242;51.694;10.006;2023-06-24T10:26:35;7.47;;;2.97;;
66429;SDS011;53242;51.694;10.006;2023-06-24T10:34:01;5.53;;;3.10;;
66429;SDS011;53242;51.694;10.006;2023-06-24T10:36:32;7.80;;;3.22;;
66429;SDS011;53242;51.694;10.006;2023-06-24T10:38:55;10.68;;;3.30;;
66429;SDS011;53242;51.694;10.006;2023-06-24T10:41:18;7.72;;;3.20;;
66429;SDS011;53242;51.694;10.006;2023-06-24T10:43:41;5.65;;;3.08;;
66429;SDS011;53242;51.694;10.006;2023-06-24T10:46:06;6.80;;;3.38;;
66429;SDS011;53242;51.694;10.006;2023-06-24T10:48:37;7.03;;;3.40;;
66429;SDS011;53242;51.694;10.006;2023-06-24T10:51:00;7.30;;;3.17;;
66429;SDS011;53242;51.694;10.006;2023-06-24T10:53:22;8.98;;;3.40;;
66429;SDS011;53242;51.694;10.006;2023-06-24T10:55:44;6.32;;;3.08;;
66429;SDS011;53242;51.694;10.006;2023-06-24T10:58:11;7.40;;;3.20;;
66429;SDS011;53242;51.694;10.006;2023-06-24T11:00:35;6.85;;;2.90;;
66429;SDS011;53242;51.694;10.006;2023-06-24T11:02:57;6.70;;;2.85;;
66429;SDS011;53242;51.694;10.006;2023-06-24T11:05:30;6.82;;;3.10;;
66429;SDS011;53242;51.694;10.006;2023-06-24T11:07:53;6.85;;;3.28;;
66429;SDS011;53242;51.694;10.006;2023-06-24T11:10:15;5.20;;;2.90;;
66429;SDS011;53242;51.694;10.006;2023-06-24T11:12:38;6.85;;;3.28;;
66429;SDS011;53242;51.694;10.006;2023-06-24T11:15:12;6.90;;;2.65;;
66429;SDS011;53242;51.694;10.006;2023-06-24T11:17:35;6.75;;;2.90;;
66429;SDS011;53242;51.694;10.006;2023-06-24T11:19:59;7.75;;;2.90;;
66429;SDS011;53242;51.694;10.006;2023-06-24T11:22:22;6.93;;;2.78;;
66429;SDS011;53242;51.694;10.006;2023-06-24T11:24:44;6.03;;;2.80;;
66429;SDS011;53242;51.694;10.006;2023-06-24T11:27:07;5.97;;;2.80;;
66429;SDS011;53242;51.694;10.006;2023-06-24T11:29:29;7.10;;;3.03;;
66429;SDS011;53242;51.694;10.006;2023-06-24T11:31:53;6.70;;;2.80;;
66429;SDS011;53242;51.694;10.006;2023-06-24T11:34:16;5.03;;;2.90;;
66429;SDS011;53242;51.694;10.006;2023-06-24T11:36:39;6.20;;;3.00;;
66429;SDS011;53242;51.694;10.006;2023-06-24T11:39:01;6.13;;;3.00;;
66429;SDS011;53242;51.694;10.006;2023-06-24T11:41:25;5.47;;;2.42;;
66429;SDS011;53242;51.694;10.006;2023-06-24T11:43:49;7.53;;;3.30;;
66429;SDS011;53242;51.694;10.006;2023-06-24T11:46:27;6.53;;;2.67;;
66429;SDS011;53242;51.694;10.006;2023-06-24T11:49:05;6.07;;;2.90;;
66429;SDS011;53242;51.694;10.006;2023-06-24T11:51:28;5.80;;;2.88;;
66429;SDS011;53242;51.694;10.006;2023-06-24T11:53:50;6.22;;;2.90;;
66429;SDS011;53242;51.694;10.006;2023-06-24T11:56:13;5.38;;;2.90;;
66429;SDS011;53242;51.694;10.006;2023-06-24T11:58:35;5.47;;;2.80;;
66429;SDS011;53242;51.694;10.006;2023-06-24T12:00:58;7.55;;;3.00;;
66429;SDS011;53242;51.694;10.006;2023-06-24T12:03:22;6.18;;;2.95;;
66429;SDS011;53242;51.694;10.006;2023-06-24T12:05:46;6.20;;;2.78;;
66429;SDS011;53242;51.694;10.006;2023-06-24T12:08:09;6.55;;;2.80;;
66429;SDS011;53242;51.694;10.006;2023-06-24T12:10:33;5.40;;;2.70;;
66429;SDS011;53242;51.694;10.006;2023-06-24T12:12:56;7.50;;;2.80;;
66429;SDS011;53242;51.694;10.006;2023-06-24T12:15:19;5.95;;;2.97;;
66429;SDS011;53242;51.694;10.006;2023-06-24T12:17:42;7.15;;;3.33;;
66429;SDS011;53242;51.694;10.006;2023-06-24T12:20:04;7.03;;;3.00;;
66429;SDS011;53242;51.694;10.006;2023-06-24T12:22:27;5.65;;;2.75;;
66429;SDS011;53242;51.694;10.006;2023-06-24T12:24:50;5.65;;;2.80;;
66429;SDS011;53242;51.694;10.006;2023-06-24T12:27:12;7.38;;;3.00;;
66429;SDS011;53242;51.694;10.006;2023-06-24T12:29:35;8.93;;;2.85;;
66429;SDS011;53242;51.694;10.006;2023-06-24T12:31:57;7.47;;;3.00;;
66429;SDS011;53242;51.694;10.006;2023-06-24T12:34:19;6.80;;;2.92;;
66429;SDS011;53242;51.694;10.006;2023-06-24T12:36:42;5.68;;;2.80;;
66429;SDS011;53242;51.694;10.006;2023-06-24T12:39:05;6.82;;;3.38;;
66429;SDS011;53242;51.694;10.006;2023-06-24T12:41:27;6.53;;;3.45;;
66429;SDS011;53242;51.694;10.006;2023-06-24T12:43:50;8.32;;;3.70;;
66429;SDS011;53242;51.694;10.006;2023-06-24T12:46:12;6.75;;;3.13;;
66429;SDS011;53242;51.694;10.006;2023-06-24T12:48:35;7.10;;;3.00;;
66429;SDS011;53242;51.694;10.006;2023-06-24T12:50:57;7.07;;;3.53;;
66429;SDS011;53242;51.694;10.006;2023-06-24T12:53:20;6.47;;;3.13;;
66429;SDS011;53242;51.694;10.006;2023-06-24T12:55:43;7.97;;;3.40;;
66429;SDS011;53242;51.694;10.006;2023-06-24T12:58:05;7.50;;;3.50;;
66429;SDS011;53242;51.694;10.006;2023-06-24T13:00:28;6.70;;;3.40;;
66429;SDS011;53242;51.694;10.006;2023-06-24T13:02:50;7.10;;;3.47;;
66429;SDS011;53242;51.694;10.006;2023-06-24T13:05:13;7.78;;;3.72;;
66429;SDS011;53242;51.694;10.006;2023-06-24T13:07:35;8.13;;;3.70;;
66429;SDS011;53242;51.694;10.006;2023-06-24T13:09:57;6.85;;;3.33;;
66429;SDS011;53242;51.694;10.006;2023-06-24T13:12:21;7.85;;;3.50;;
66429;SDS011;53242;51.694;10.006;2023-06-24T13:14:44;7.18;;;3.20;;
66429;SDS011;53242;51.694;10.006;2023-06-24T13:17:06;9.10;;;3.63;;
66429;SDS011;53242;51.694;10.006;2023-06-24T13:19:29;6.63;;;3.22;;
66429;SDS011;53242;51.694;10.006;2023-06-24T13:21:51;6.97;;;3.60;;
66429;SDS011;53242;51.694;10.006;2023-06-24T13:24:14;8.95;;;3.38;;
66429;SDS011;53242;51.694;10.006;2023-06-24T13:26:36;6.40;;;3.35;;
66429;SDS011;53242;51.694;10.006;2023-06-24T13:28:59;6.63;;;3.15;;
66429;SDS011;53242;51.694;10.006;2023-06-24T13:31:21;5.93;;;3.22;;
66429;SDS011;53242;51.694;10.006;2023-06-24T13:33:43;6.63;;;3.50;;
66429;SDS011;53242;51.694;10.006;2023-06-24T13:36:06;7.25;;;3.30;;
66429;SDS011;53242;51.694;10.006;2023-06-24T13:38:30;7.28;;;3.92;;
66429;SDS011;53242;51.694;10.006;2023-06-24T13:40:53;7.30;;;3.95;;
66429;SDS011;53242;51.694;10.006;2023-06-24T13:43:15;8.50;;;4.10;;
66429;SDS011;53242;51.694;10.006;2023-06-24T13:45:37;10.60;;;4.05;;
66429;SDS011;53242;51.694;10.006;2023-06-24T13:48:00;8.30;;;3.85;;
66429;SDS011;53242;51.694;10.006;2023-06-24T13:50:22;6.78;;;3.65;;
66429;SDS011;53242;51.694;10.006;2023-06-24T13:52:45;8.48;;;3.83;;
66429;SDS011;53242;51.694;10.006;2023-06-24T13:55:07;7.10;;;3.50;;
66429;SDS011;53242;51.694;10.006;2023-06-24T13:57:30;7.40;;;3.72;;
66429;SDS011;53242;51.694;10.006;2023-06-24T13:59:52;6.47;;;3.83;;
66429;SDS011;53242;51.694;10.006;2023-06-24T14:02:15;7.75;;;3.83;;
66429;SDS011;53242;51.694;10.006;2023-06-24T14:04:37;9.50;;;3.60;;
66429;SDS011;53242;51.694;10.006;2023-06-24T14:11:46;7.73;;;3.50;;
66429;SDS011;53242;51.694;10.006;2023-06-24T14:14:09;7.55;;;3.58;;
66429;SDS011;53242;51.694;10.006;2023-06-24T14:16:31;8.05;;;3.80;;
66429;SDS011;53242;51.694;10.006;2023-06-24T14:18:53;6.90;;;3.50;;
66429;SDS011;53242;51.694;10.006;2023-06-24T14:21:16;7.00;;;3.42;;
66429;SDS011;53242;51.694;10.006;2023-06-24T14:23:38;7.63;;;3.40;;
66429;SDS011;53242;51.694;10.006;2023-06-24T14:26:02;6.97;;;3.20;;
66429;SDS011;53242;51.694;10.006;2023-06-24T14:28:25;9.65;;;4.03;;